sensor_id;sensor_type;location;lat;lon;timestamp;temperature;humidity
4187;DHT22;2107;52.306;10.484;2022-07-29T00:00:48;14.40;99.90
4187;DHT22;2107;52.306;10.484;2022-07-29T00:03:15;14.50;99.90
4187;DHT22;2107;52.306;10.484;2022-07-29T00:05:43;14.50;99.90
4187;DHT22;2107;52.306;10.484;2022-07-29T00:08:10;14.50;99.90
4187;DHT22;2107;52.306;10.484;2022-07-29T00:10:37;14.60;99.90
4187;DHT22;2107;52.306;10.484;2022-07-29T00:13:04;14.60;99.90
4187;DHT22;2107;52.306;10.484;2022-07-29T00:15:31;14.70;99.90
4187;DHT22;2107;52.306;10.484;2022-07-29T00:17:58;14.80;99.90
4187;DHT22;2107;52.306;10.484;2022-07-29T00:20:25;14.80;99.90
4187;DHT22;2107;52.306;10.484;2022-07-29T00:22:53;14.80;99.90
4187;DHT22;2107;52.306;10.484;2022-07-29T00:25:20;14.90;99.90
4187;DHT22;2107;52.306;10.484;2022-07-29T00:27:47;14.80;99.90
4187;DHT22;2107;52.306;10.484;2022-07-29T00:30:14;14.70;99.90
4187;DHT22;2107;52.306;10.484;2022-07-29T00:32:41;14.60;99.90
4187;DHT22;2107;52.306;10.484;2022-07-29T00:35:09;14.60;99.90
4187;DHT22;2107;52.306;10.484;2022-07-29T00:37:55;14.60;99.90
4187;DHT22;2107;52.306;10.484;2022-07-29T00:40:22;14.50;99.90
4187;DHT22;2107;52.306;10.484;2022-07-29T00:42:50;14.50;99.90
4187;DHT22;2107;52.306;10.484;2022-07-29T00:45:18;14.50;99.90
4187;DHT22;2107;52.306;10.484;2022-07-29T00:47:47;14.50;99.90
4187;DHT22;2107;52.306;10.484;2022-07-29T00:50:14;14.50;99.90
4187;DHT22;2107;52.306;10.484;2022-07-29T00:52:42;14.50;99.90
4187;DHT22;2107;52.306;10.484;2022-07-29T00:55:12;14.60;99.90
4187;DHT22;2107;52.306;10.484;2022-07-29T00:57:41;14.60;99.90
4187;DHT22;2107;52.306;10.484;2022-07-29T01:00:10;14.60;99.90
4187;DHT22;2107;52.306;10.484;2022-07-29T01:02:37;14.70;99.90
4187;DHT22;2107;52.306;10.484;2022-07-29T01:05:05;14.70;99.90
4187;DHT22;2107;52.306;10.484;2022-07-29T01:07:34;14.70;99.90
4187;DHT22;2107;52.306;10.484;2022-07-29T01:10:02;14.70;99.90
4187;DHT22;2107;52.306;10.484;2022-07-29T01:12:31;14.80;99.90
4187;DHT22;2107;52.306;10.484;2022-07-29T01:15:00;14.90;99.90
4187;DHT22;2107;52.306;10.484;2022-07-29T01:17:32;14.90;99.90
4187;DHT22;2107;52.306;10.484;2022-07-29T01:20:06;14.90;99.90
4187;DHT22;2107;52.306;10.484;2022-07-29T01:22:53;15.00;99.90
4187;DHT22;2107;52.306;10.484;2022-07-29T01:25:54;15.00;99.90
4187;DHT22;2107;52.306;10.484;2022-07-29T01:28:57;15.10;99.90
4187;DHT22;2107;52.306;10.484;2022-07-29T01:31:31;15.10;99.90
4187;DHT22;2107;52.306;10.484;2022-07-29T01:34:03;15.10;99.90
4187;DHT22;2107;52.306;10.484;2022-07-29T01:36:40;15.10;99.90
4187;DHT22;2107;52.306;10.484;2022-07-29T01:39:11;15.10;99.90
4187;DHT22;2107;52.306;10.484;2022-07-29T01:41:43;15.10;99.90
4187;DHT22;2107;52.306;10.484;2022-07-29T01:44:18;15.20;99.90
4187;DHT22;2107;52.306;10.484;2022-07-29T01:46:51;15.10;99.90
4187;DHT22;2107;52.306;10.484;2022-07-29T01:49:22;15.20;99.90
4187;DHT22;2107;52.306;10.484;2022-07-29T01:51:54;15.20;99.90
4187;DHT22;2107;52.306;10.484;2022-07-29T01:54:28;15.20;99.90
4187;DHT22;2107;52.306;10.484;2022-07-29T01:56:58;15.20;99.90
4187;DHT22;2107;52.306;10.484;2022-07-29T01:59:29;15.20;99.90
4187;DHT22;2107;52.306;10.484;2022-07-29T02:01:58;15.20;99.90
4187;DHT22;2107;52.306;10.484;2022-07-29T02:04:26;15.20;99.90
4187;DHT22;2107;52.306;10.484;2022-07-29T02:06:58;15.20;99.90
4187;DHT22;2107;52.306;10.484;2022-07-29T02:09:28;15.20;99.90
4187;DHT22;2107;52.306;10.484;2022-07-29T02:11:56;15.20;99.90
4187;DHT22;2107;52.306;10.484;2022-07-29T02:14:24;15.20;99.90
4187;DHT22;2107;52.306;10.484;2022-07-29T02:16:56;15.10;99.90
4187;DHT22;2107;52.306;10.484;2022-07-29T02:19:25;15.10;99.90
4187;DHT22;2107;52.306;10.484;2022-07-29T02:21:54;15.10;99.90
4187;DHT22;2107;52.306;10.484;2022-07-29T02:24:23;15.10;99.90
4187;DHT22;2107;52.306;10.484;2022-07-29T02:26:53;15.10;99.90
4187;DHT22;2107;52.306;10.484;2022-07-29T02:29:25;15.00;99.90
4187;DHT22;2107;52.306;10.484;2022-07-29T02:31:55;14.90;99.90
4187;DHT22;2107;52.306;10.484;2022-07-29T02:34:23;14.80;99.90
4187;DHT22;2107;52.306;10.484;2022-07-29T02:36:51;14.70;99.90
4187;DHT22;2107;52.306;10.484;2022-07-29T02:39:20;14.70;99.90
4187;DHT22;2107;52.306;10.484;2022-07-29T02:41:51;14.60;99.90
4187;DHT22;2107;52.306;10.484;2022-07-29T02:44:20;14.50;99.90
4187;DHT22;2107;52.306;10.484;2022-07-29T02:46:51;14.50;99.90
4187;DHT22;2107;52.306;10.484;2022-07-29T02:49:34;14.50;99.90
4187;DHT22;2107;52.306;10.484;2022-07-29T02:52:06;14.60;99.90
4187;DHT22;2107;52.306;10.484;2022-07-29T02:54:41;14.50;99.90
4187;DHT22;2107;52.306;10.484;2022-07-29T02:57:14;14.60;99.90
4187;DHT22;2107;52.306;10.484;2022-07-29T02:59:45;14.60;99.90
4187;DHT22;2107;52.306;10.484;2022-07-29T03:02:14;14.60;99.90
4187;DHT22;2107;52.306;10.484;2022-07-29T03:04:44;14.60;99.90
4187;DHT22;2107;52.306;10.484;2022-07-29T03:07:15;14.60;99.90
4187;DHT22;2107;52.306;10.484;2022-07-29T03:09:45;14.60;99.90
4187;DHT22;2107;52.306;10.484;2022-07-29T03:12:14;14.70;99.90
4187;DHT22;2107;52.306;10.484;2022-07-29T03:14:42;14.70;99.90
4187;DHT22;2107;52.306;10.484;2022-07-29T03:17:09;14.70;99.90
4187;DHT22;2107;52.306;10.484;2022-07-29T03:19:37;14.70;99.90
4187;DHT22;2107;52.306;10.484;2022-07-29T03:22:05;14.70;99.90
4187;DHT22;2107;52.306;10.484;2022-07-29T03:24:34;14.70;99.90
4187;DHT22;2107;52.306;10.484;2022-07-29T03:27:03;14.70;99.90
4187;DHT22;2107;52.306;10.484;2022-07-29T03:29:31;14.70;99.90
4187;DHT22;2107;52.306;10.484;2022-07-29T03:31:58;14.70;99.90
4187;DHT22;2107;52.306;10.484;2022-07-29T03:34:25;14.70;99.90
4187;DHT22;2107;52.306;10.484;2022-07-29T03:36:52;14.60;99.90
4187;DHT22;2107;52.306;10.484;2022-07-29T03:39:23;14.60;99.90
4187;DHT22;2107;52.306;10.484;2022-07-29T03:41:53;14.60;99.90
4187;DHT22;2107;52.306;10.484;2022-07-29T03:44:22;14.60;99.90
4187;DHT22;2107;52.306;10.484;2022-07-29T03:46:50;14.60;99.90
4187;DHT22;2107;52.306;10.484;2022-07-29T03:49:20;14.60;99.90
4187;DHT22;2107;52.306;10.484;2022-07-29T03:51:48;14.60;99.90
4187;DHT22;2107;52.306;10.484;2022-07-29T03:54:15;14.60;99.90
4187;DHT22;2107;52.306;10.484;2022-07-29T03:56:45;14.60;99.90
4187;DHT22;2107;52.306;10.484;2022-07-29T03:59:13;14.60;99.90
4187;DHT22;2107;52.306;10.484;2022-07-29T04:01:42;14.60;99.90
4187;DHT22;2107;52.306;10.484;2022-07-29T04:04:09;14.60;99.90
4187;DHT22;2107;52.306;10.484;2022-07-29T04:06:38;14.70;99.90
4187;DHT22;2107;52.306;10.484;2022-07-29T04:09:06;14.70;99.90
4187;DHT22;2107;52.306;10.484;2022-07-29T04:11:33;14.70;99.90
4187;DHT22;2107;52.306;10.484;2022-07-29T04:14:02;14.60;99.90
4187;DHT22;2107;52.306;10.484;2022-07-29T04:16:29;14.60;99.90
4187;DHT22;2107;52.306;10.484;2022-07-29T04:18:56;14.60;99.90
4187;DHT22;2107;52.306;10.484;2022-07-29T04:21:23;14.60;99.90
4187;DHT22;2107;52.306;10.484;2022-07-29T04:23:50;14.60;99.90
4187;DHT22;2107;52.306;10.484;2022-07-29T04:26:17;14.60;99.90
4187;DHT22;2107;52.306;10.484;2022-07-29T04:28:44;14.60;99.90
4187;DHT22;2107;52.306;10.484;2022-07-29T04:31:12;14.60;99.90
4187;DHT22;2107;52.306;10.484;2022-07-29T04:33:40;14.70;99.90
4187;DHT22;2107;52.306;10.484;2022-07-29T04:36:07;14.70;99.90
4187;DHT22;2107;52.306;10.484;2022-07-29T04:38:34;14.80;99.90
4187;DHT22;2107;52.306;10.484;2022-07-29T04:41:01;14.80;99.90
4187;DHT22;2107;52.306;10.484;2022-07-29T04:43:28;14.90;99.90
4187;DHT22;2107;52.306;10.484;2022-07-29T04:45:55;14.90;99.90
4187;DHT22;2107;52.306;10.484;2022-07-29T04:48:23;15.00;99.90
4187;DHT22;2107;52.306;10.484;2022-07-29T04:50:50;15.00;99.90
4187;DHT22;2107;52.306;10.484;2022-07-29T04:53:17;15.10;99.90
4187;DHT22;2107;52.306;10.484;2022-07-29T04:55:44;15.20;99.90
4187;DHT22;2107;52.306;10.484;2022-07-29T04:58:11;15.30;99.90
4187;DHT22;2107;52.306;10.484;2022-07-29T05:00:39;15.30;99.90
4187;DHT22;2107;52.306;10.484;2022-07-29T05:03:06;15.30;99.90
4187;DHT22;2107;52.306;10.484;2022-07-29T05:05:34;15.40;99.90
4187;DHT22;2107;52.306;10.484;2022-07-29T05:08:01;15.50;99.90
4187;DHT22;2107;52.306;10.484;2022-07-29T05:10:28;15.40;99.90
4187;DHT22;2107;52.306;10.484;2022-07-29T05:12:55;15.40;99.90
4187;DHT22;2107;52.306;10.484;2022-07-29T05:15:22;15.50;99.90
4187;DHT22;2107;52.306;10.484;2022-07-29T05:17:49;15.50;99.90
4187;DHT22;2107;52.306;10.484;2022-07-29T05:20:16;15.60;99.90
4187;DHT22;2107;52.306;10.484;2022-07-29T05:22:45;15.60;99.90
4187;DHT22;2107;52.306;10.484;2022-07-29T05:25:12;15.70;99.90
4187;DHT22;2107;52.306;10.484;2022-07-29T05:27:39;15.80;99.90
4187;DHT22;2107;52.306;10.484;2022-07-29T05:30:07;15.80;99.90
4187;DHT22;2107;52.306;10.484;2022-07-29T05:32:34;15.80;99.90
4187;DHT22;2107;52.306;10.484;2022-07-29T05:35:00;15.90;99.90
4187;DHT22;2107;52.306;10.484;2022-07-29T05:37:27;16.00;99.90
4187;DHT22;2107;52.306;10.484;2022-07-29T05:39:56;16.00;99.90
4187;DHT22;2107;52.306;10.484;2022-07-29T05:42:23;16.20;99.90
4187;DHT22;2107;52.306;10.484;2022-07-29T05:44:50;16.40;99.90
4187;DHT22;2107;52.306;10.484;2022-07-29T05:47:17;16.30;99.90
4187;DHT22;2107;52.306;10.484;2022-07-29T05:49:44;16.40;99.90
4187;DHT22;2107;52.306;10.484;2022-07-29T05:52:11;16.60;99.90
4187;DHT22;2107;52.306;10.484;2022-07-29T05:54:39;16.60;99.90
4187;DHT22;2107;52.306;10.484;2022-07-29T05:57:08;16.70;99.90
4187;DHT22;2107;52.306;10.484;2022-07-29T05:59:35;16.80;99.90
4187;DHT22;2107;52.306;10.484;2022-07-29T06:02:02;16.80;99.90
4187;DHT22;2107;52.306;10.484;2022-07-29T06:04:30;17.20;99.90
4187;DHT22;2107;52.306;10.484;2022-07-29T06:06:57;17.40;99.90
4187;DHT22;2107;52.306;10.484;2022-07-29T06:09:24;17.50;99.90
4187;DHT22;2107;52.306;10.484;2022-07-29T06:11:51;17.50;99.90
4187;DHT22;2107;52.306;10.484;2022-07-29T06:14:20;17.70;99.90
4187;DHT22;2107;52.306;10.484;2022-07-29T06:16:47;17.60;99.90
4187;DHT22;2107;52.306;10.484;2022-07-29T06:19:14;17.60;99.90
4187;DHT22;2107;52.306;10.484;2022-07-29T06:21:41;17.80;99.90
4187;DHT22;2107;52.306;10.484;2022-07-29T06:24:10;18.10;99.90
4187;DHT22;2107;52.306;10.484;2022-07-29T06:26:37;18.40;99.90
4187;DHT22;2107;52.306;10.484;2022-07-29T06:29:04;18.60;99.90
4187;DHT22;2107;52.306;10.484;2022-07-29T06:31:33;18.60;99.90
4187;DHT22;2107;52.306;10.484;2022-07-29T06:34:00;19.00;99.90
4187;DHT22;2107;52.306;10.484;2022-07-29T06:36:27;19.30;99.90
4187;DHT22;2107;52.306;10.484;2022-07-29T06:38:54;19.40;99.90
4187;DHT22;2107;52.306;10.484;2022-07-29T06:41:21;19.70;99.90
4187;DHT22;2107;52.306;10.484;2022-07-29T06:43:49;19.50;99.90
4187;DHT22;2107;52.306;10.484;2022-07-29T06:46:17;19.50;99.90
4187;DHT22;2107;52.306;10.484;2022-07-29T06:48:46;19.50;99.90
4187;DHT22;2107;52.306;10.484;2022-07-29T06:51:13;19.30;99.90
4187;DHT22;2107;52.306;10.484;2022-07-29T06:53:40;19.60;99.90
4187;DHT22;2107;52.306;10.484;2022-07-29T06:56:08;19.70;99.90
4187;DHT22;2107;52.306;10.484;2022-07-29T06:58:35;19.80;99.90
4187;DHT22;2107;52.306;10.484;2022-07-29T07:01:04;20.20;99.90
4187;DHT22;2107;52.306;10.484;2022-07-29T07:03:31;21.10;99.90
4187;DHT22;2107;52.306;10.484;2022-07-29T07:06:00;21.50;99.90
4187;DHT22;2107;52.306;10.484;2022-07-29T07:08:27;21.10;99.90
4187;DHT22;2107;52.306;10.484;2022-07-29T07:10:53;20.90;99.90
4187;DHT22;2107;52.306;10.484;2022-07-29T07:13:22;21.50;99.90
4187;DHT22;2107;52.306;10.484;2022-07-29T07:15:49;21.70;99.90
4187;DHT22;2107;52.306;10.484;2022-07-29T07:18:17;22.50;99.90
4187;DHT22;2107;52.306;10.484;2022-07-29T07:20:44;23.10;99.90
4187;DHT22;2107;52.306;10.484;2022-07-29T07:23:13;22.80;99.90
4187;DHT22;2107;52.306;10.484;2022-07-29T07:25:40;22.00;99.90
4187;DHT22;2107;52.306;10.484;2022-07-29T07:28:07;22.10;99.90
4187;DHT22;2107;52.306;10.484;2022-07-29T07:30:34;22.50;99.90
4187;DHT22;2107;52.306;10.484;2022-07-29T07:33:01;22.30;99.90
4187;DHT22;2107;52.306;10.484;2022-07-29T07:35:28;22.60;99.90
4187;DHT22;2107;52.306;10.484;2022-07-29T07:37:56;22.80;99.90
4187;DHT22;2107;52.306;10.484;2022-07-29T07:40:24;22.90;99.90
4187;DHT22;2107;52.306;10.484;2022-07-29T07:42:52;22.90;99.90
4187;DHT22;2107;52.306;10.484;2022-07-29T07:45:19;22.90;99.90
4187;DHT22;2107;52.306;10.484;2022-07-29T07:47:46;23.20;99.90
4187;DHT22;2107;52.306;10.484;2022-07-29T07:50:13;23.30;99.90
4187;DHT22;2107;52.306;10.484;2022-07-29T07:52:48;23.30;99.90
4187;DHT22;2107;52.306;10.484;2022-07-29T07:55:15;22.90;99.90
4187;DHT22;2107;52.306;10.484;2022-07-29T07:57:44;23.20;99.90
4187;DHT22;2107;52.306;10.484;2022-07-29T08:00:13;23.40;99.90
4187;DHT22;2107;52.306;10.484;2022-07-29T08:02:40;23.30;99.90
4187;DHT22;2107;52.306;10.484;2022-07-29T08:05:09;23.10;99.90
4187;DHT22;2107;52.306;10.484;2022-07-29T08:07:37;23.60;99.90
4187;DHT22;2107;52.306;10.484;2022-07-29T08:10:04;23.40;99.90
4187;DHT22;2107;52.306;10.484;2022-07-29T08:12:31;22.60;99.90
4187;DHT22;2107;52.306;10.484;2022-07-29T08:15:00;23.10;99.90
4187;DHT22;2107;52.306;10.484;2022-07-29T08:17:27;22.90;99.90
4187;DHT22;2107;52.306;10.484;2022-07-29T08:19:54;23.00;99.90
4187;DHT22;2107;52.306;10.484;2022-07-29T08:22:21;22.90;99.90
4187;DHT22;2107;52.306;10.484;2022-07-29T08:24:48;23.10;99.90
4187;DHT22;2107;52.306;10.484;2022-07-29T08:27:19;23.50;99.90
4187;DHT22;2107;52.306;10.484;2022-07-29T08:29:47;23.50;99.90
4187;DHT22;2107;52.306;10.484;2022-07-29T08:32:15;23.80;99.90
4187;DHT22;2107;52.306;10.484;2022-07-29T08:34:42;23.70;99.90
4187;DHT22;2107;52.306;10.484;2022-07-29T08:37:12;23.90;99.90
4187;DHT22;2107;52.306;10.484;2022-07-29T08:39:38;23.80;99.90
4187;DHT22;2107;52.306;10.484;2022-07-29T08:42:06;24.30;99.90
4187;DHT22;2107;52.306;10.484;2022-07-29T08:44:35;24.10;99.90
4187;DHT22;2107;52.306;10.484;2022-07-29T08:47:03;24.60;99.90
4187;DHT22;2107;52.306;10.484;2022-07-29T08:49:33;24.30;99.90
4187;DHT22;2107;52.306;10.484;2022-07-29T08:52:00;24.20;99.90
4187;DHT22;2107;52.306;10.484;2022-07-29T08:54:27;24.40;99.90
4187;DHT22;2107;52.306;10.484;2022-07-29T08:56:54;24.80;99.90
4187;DHT22;2107;52.306;10.484;2022-07-29T08:59:22;25.40;99.90
4187;DHT22;2107;52.306;10.484;2022-07-29T09:01:53;25.80;99.90
4187;DHT22;2107;52.306;10.484;2022-07-29T09:04:20;26.20;99.90
4187;DHT22;2107;52.306;10.484;2022-07-29T09:06:51;26.20;99.90
4187;DHT22;2107;52.306;10.484;2022-07-29T09:09:20;25.50;99.90
4187;DHT22;2107;52.306;10.484;2022-07-29T09:11:48;25.60;99.90
4187;DHT22;2107;52.306;10.484;2022-07-29T09:14:15;25.20;99.90
4187;DHT22;2107;52.306;10.484;2022-07-29T09:16:50;25.30;99.90
4187;DHT22;2107;52.306;10.484;2022-07-29T09:19:28;24.80;99.90
4187;DHT22;2107;52.306;10.484;2022-07-29T09:21:59;24.80;99.90
4187;DHT22;2107;52.306;10.484;2022-07-29T09:24:36;25.40;99.90
4187;DHT22;2107;52.306;10.484;2022-07-29T09:27:08;25.70;99.90
4187;DHT22;2107;52.306;10.484;2022-07-29T09:29:35;26.00;99.90
4187;DHT22;2107;52.306;10.484;2022-07-29T09:32:06;25.70;99.90
4187;DHT22;2107;52.306;10.484;2022-07-29T09:34:34;26.00;99.90
4187;DHT22;2107;52.306;10.484;2022-07-29T09:37:03;25.90;99.90
4187;DHT22;2107;52.306;10.484;2022-07-29T09:39:32;26.20;99.90
4187;DHT22;2107;52.306;10.484;2022-07-29T09:42:01;26.80;99.90
4187;DHT22;2107;52.306;10.484;2022-07-29T09:44:44;27.50;99.90
4187;DHT22;2107;52.306;10.484;2022-07-29T09:47:11;27.00;99.90
4187;DHT22;2107;52.306;10.484;2022-07-29T09:49:52;27.40;99.90
4187;DHT22;2107;52.306;10.484;2022-07-29T09:52:21;27.20;99.90
4187;DHT22;2107;52.306;10.484;2022-07-29T09:54:48;28.00;99.90
4187;DHT22;2107;52.306;10.484;2022-07-29T09:57:23;27.40;99.90
4187;DHT22;2107;52.306;10.484;2022-07-29T09:59:58;28.00;99.90
4187;DHT22;2107;52.306;10.484;2022-07-29T10:02:29;28.30;99.90
4187;DHT22;2107;52.306;10.484;2022-07-29T10:04:57;28.70;99.90
4187;DHT22;2107;52.306;10.484;2022-07-29T10:07:26;29.60;99.90
4187;DHT22;2107;52.306;10.484;2022-07-29T10:09:54;29.80;99.90
4187;DHT22;2107;52.306;10.484;2022-07-29T10:12:21;29.70;99.90
4187;DHT22;2107;52.306;10.484;2022-07-29T10:14:49;29.40;99.90
4187;DHT22;2107;52.306;10.484;2022-07-29T10:17:17;29.60;99.90
4187;DHT22;2107;52.306;10.484;2022-07-29T10:19:45;29.80;99.90
4187;DHT22;2107;52.306;10.484;2022-07-29T10:22:12;29.90;99.90
4187;DHT22;2107;52.306;10.484;2022-07-29T10:24:40;28.50;99.90
4187;DHT22;2107;52.306;10.484;2022-07-29T10:27:08;28.40;99.90
4187;DHT22;2107;52.306;10.484;2022-07-29T10:29:35;28.20;99.90
4187;DHT22;2107;52.306;10.484;2022-07-29T10:32:20;27.60;99.90
4187;DHT22;2107;52.306;10.484;2022-07-29T10:35:06;27.50;99.90
4187;DHT22;2107;52.306;10.484;2022-07-29T10:37:46;27.90;99.90
4187;DHT22;2107;52.306;10.484;2022-07-29T10:40:28;27.80;99.90
4187;DHT22;2107;52.306;10.484;2022-07-29T10:43:20;27.30;99.90
4187;DHT22;2107;52.306;10.484;2022-07-29T10:45:49;27.20;99.90
4187;DHT22;2107;52.306;10.484;2022-07-29T10:48:22;27.50;99.90
4187;DHT22;2107;52.306;10.484;2022-07-29T10:50:53;27.50;99.90
4187;DHT22;2107;52.306;10.484;2022-07-29T10:53:20;27.70;99.90
4187;DHT22;2107;52.306;10.484;2022-07-29T10:55:50;27.80;99.90
4187;DHT22;2107;52.306;10.484;2022-07-29T10:58:18;27.70;99.90
4187;DHT22;2107;52.306;10.484;2022-07-29T11:00:46;27.90;99.90
4187;DHT22;2107;52.306;10.484;2022-07-29T11:03:45;27.90;99.90
4187;DHT22;2107;52.306;10.484;2022-07-29T11:06:12;27.50;99.90
4187;DHT22;2107;52.306;10.484;2022-07-29T11:08:40;27.50;99.90
4187;DHT22;2107;52.306;10.484;2022-07-29T11:11:32;27.40;99.90
4187;DHT22;2107;52.306;10.484;2022-07-29T11:13:59;27.60;99.90
4187;DHT22;2107;52.306;10.484;2022-07-29T11:17:03;27.70;99.90
4187;DHT22;2107;52.306;10.484;2022-07-29T11:19:30;27.30;99.90
4187;DHT22;2107;52.306;10.484;2022-07-29T11:21:57;27.50;99.90
4187;DHT22;2107;52.306;10.484;2022-07-29T11:24:25;27.50;99.90
4187;DHT22;2107;52.306;10.484;2022-07-29T11:27:15;27.30;99.90
4187;DHT22;2107;52.306;10.484;2022-07-29T11:29:53;27.50;99.90
4187;DHT22;2107;52.306;10.484;2022-07-29T11:32:21;27.70;99.90
4187;DHT22;2107;52.306;10.484;2022-07-29T11:34:49;27.70;99.90
4187;DHT22;2107;52.306;10.484;2022-07-29T11:37:23;27.70;99.90
4187;DHT22;2107;52.306;10.484;2022-07-29T11:40:17;27.20;99.90
4187;DHT22;2107;52.306;10.484;2022-07-29T11:42:48;27.60;99.90
4187;DHT22;2107;52.306;10.484;2022-07-29T11:45:18;28.00;99.90
4187;DHT22;2107;52.306;10.484;2022-07-29T11:47:52;27.90;99.90
4187;DHT22;2107;52.306;10.484;2022-07-29T11:50:31;27.90;99.90
4187;DHT22;2107;52.306;10.484;2022-07-29T11:52:58;27.80;99.90
4187;DHT22;2107;52.306;10.484;2022-07-29T11:55:26;28.00;99.90
4187;DHT22;2107;52.306;10.484;2022-07-29T11:57:56;28.20;99.90
4187;DHT22;2107;52.306;10.484;2022-07-29T12:00:26;28.40;99.90
4187;DHT22;2107;52.306;10.484;2022-07-29T12:02:54;28.50;99.90
4187;DHT22;2107;52.306;10.484;2022-07-29T12:05:31;28.50;99.90
4187;DHT22;2107;52.306;10.484;2022-07-29T12:08:08;28.30;99.90
4187;DHT22;2107;52.306;10.484;2022-07-29T12:10:35;28.50;99.90
4187;DHT22;2107;52.306;10.484;2022-07-29T12:13:04;28.50;99.90
4187;DHT22;2107;52.306;10.484;2022-07-29T12:15:31;28.40;99.90
4187;DHT22;2107;52.306;10.484;2022-07-29T12:17:58;28.50;99.90
4187;DHT22;2107;52.306;10.484;2022-07-29T12:20:26;28.40;99.90
4187;DHT22;2107;52.306;10.484;2022-07-29T12:22:54;28.60;99.90
4187;DHT22;2107;52.306;10.484;2022-07-29T12:25:22;29.00;99.90
4187;DHT22;2107;52.306;10.484;2022-07-29T12:28:00;29.00;99.90
4187;DHT22;2107;52.306;10.484;2022-07-29T12:30:40;29.40;99.90
4187;DHT22;2107;52.306;10.484;2022-07-29T12:33:29;28.80;99.90
4187;DHT22;2107;52.306;10.484;2022-07-29T12:35:57;28.80;99.90
4187;DHT22;2107;52.306;10.484;2022-07-29T12:38:25;29.40;99.90
4187;DHT22;2107;52.306;10.484;2022-07-29T12:40:54;29.50;99.90
4187;DHT22;2107;52.306;10.484;2022-07-29T12:43:22;29.30;99.90
4187;DHT22;2107;52.306;10.484;2022-07-29T12:45:52;28.80;99.90
4187;DHT22;2107;52.306;10.484;2022-07-29T12:48:33;27.60;99.90
4187;DHT22;2107;52.306;10.484;2022-07-29T12:51:02;27.10;99.90
4187;DHT22;2107;52.306;10.484;2022-07-29T12:53:29;27.60;99.90
4187;DHT22;2107;52.306;10.484;2022-07-29T12:55:58;26.80;99.90
4187;DHT22;2107;52.306;10.484;2022-07-29T12:58:38;26.30;99.90
4187;DHT22;2107;52.306;10.484;2022-07-29T13:01:09;26.50;99.90
4187;DHT22;2107;52.306;10.484;2022-07-29T13:03:57;26.40;99.90
4187;DHT22;2107;52.306;10.484;2022-07-29T13:06:34;26.70;99.90
4187;DHT22;2107;52.306;10.484;2022-07-29T13:09:08;27.20;99.90
4187;DHT22;2107;52.306;10.484;2022-07-29T13:11:38;27.20;99.90
4187;DHT22;2107;52.306;10.484;2022-07-29T13:14:06;27.40;99.90
4187;DHT22;2107;52.306;10.484;2022-07-29T13:16:36;27.40;99.90
4187;DHT22;2107;52.306;10.484;2022-07-29T13:19:05;28.30;99.90
4187;DHT22;2107;52.306;10.484;2022-07-29T13:21:32;26.90;99.90
4187;DHT22;2107;52.306;10.484;2022-07-29T13:23:59;27.60;99.90
4187;DHT22;2107;52.306;10.484;2022-07-29T13:26:26;28.40;99.90
4187;DHT22;2107;52.306;10.484;2022-07-29T13:28:53;28.70;99.90
4187;DHT22;2107;52.306;10.484;2022-07-29T13:31:20;29.40;99.90
4187;DHT22;2107;52.306;10.484;2022-07-29T13:33:49;29.40;99.90
4187;DHT22;2107;52.306;10.484;2022-07-29T13:36:16;29.70;99.90
4187;DHT22;2107;52.306;10.484;2022-07-29T13:38:43;30.40;99.90
4187;DHT22;2107;52.306;10.484;2022-07-29T13:41:11;30.30;99.90
4187;DHT22;2107;52.306;10.484;2022-07-29T13:43:38;28.80;99.90
4187;DHT22;2107;52.306;10.484;2022-07-29T13:46:05;29.20;99.90
4187;DHT22;2107;52.306;10.484;2022-07-29T13:48:31;28.80;99.90
4187;DHT22;2107;52.306;10.484;2022-07-29T13:51:00;28.60;99.90
4187;DHT22;2107;52.306;10.484;2022-07-29T13:53:27;28.00;99.90
4187;DHT22;2107;52.306;10.484;2022-07-29T13:55:55;27.50;99.90
4187;DHT22;2107;52.306;10.484;2022-07-29T13:58:22;27.60;99.90
4187;DHT22;2107;52.306;10.484;2022-07-29T14:00:49;27.80;99.90
4187;DHT22;2107;52.306;10.484;2022-07-29T14:03:15;28.00;99.90
4187;DHT22;2107;52.306;10.484;2022-07-29T14:05:43;28.00;99.90
4187;DHT22;2107;52.306;10.484;2022-07-29T14:08:11;28.20;99.90
4187;DHT22;2107;52.306;10.484;2022-07-29T14:10:38;28.00;99.90
4187;DHT22;2107;52.306;10.484;2022-07-29T14:13:05;28.00;99.90
4187;DHT22;2107;52.306;10.484;2022-07-29T14:15:32;28.00;99.90
4187;DHT22;2107;52.306;10.484;2022-07-29T14:17:59;27.90;99.90
4187;DHT22;2107;52.306;10.484;2022-07-29T14:20:27;27.80;99.90
4187;DHT22;2107;52.306;10.484;2022-07-29T14:22:55;27.90;99.90
4187;DHT22;2107;52.306;10.484;2022-07-29T14:25:25;27.70;99.90
4187;DHT22;2107;52.306;10.484;2022-07-29T14:27:52;27.60;99.90
4187;DHT22;2107;52.306;10.484;2022-07-29T14:30:19;27.00;99.90
4187;DHT22;2107;52.306;10.484;2022-07-29T14:32:46;27.30;99.90
4187;DHT22;2107;52.306;10.484;2022-07-29T14:35:13;27.60;99.90
4187;DHT22;2107;52.306;10.484;2022-07-29T14:37:41;27.30;99.90
4187;DHT22;2107;52.306;10.484;2022-07-29T14:40:09;27.40;99.90
4187;DHT22;2107;52.306;10.484;2022-07-29T14:42:38;27.40;99.90
4187;DHT22;2107;52.306;10.484;2022-07-29T14:45:06;27.50;99.90
4187;DHT22;2107;52.306;10.484;2022-07-29T14:47:33;27.50;99.90
4187;DHT22;2107;52.306;10.484;2022-07-29T14:50:00;27.80;99.90
4187;DHT22;2107;52.306;10.484;2022-07-29T14:52:27;27.80;99.90
4187;DHT22;2107;52.306;10.484;2022-07-29T14:54:54;28.10;99.90
4187;DHT22;2107;52.306;10.484;2022-07-29T14:57:21;27.90;99.90
4187;DHT22;2107;52.306;10.484;2022-07-29T14:59:49;27.80;99.90
4187;DHT22;2107;52.306;10.484;2022-07-29T15:02:16;27.90;99.90
4187;DHT22;2107;52.306;10.484;2022-07-29T15:04:43;27.60;99.90
4187;DHT22;2107;52.306;10.484;2022-07-29T15:07:11;27.60;99.90
4187;DHT22;2107;52.306;10.484;2022-07-29T15:09:38;27.70;99.90
4187;DHT22;2107;52.306;10.484;2022-07-29T15:12:06;27.30;99.90
4187;DHT22;2107;52.306;10.484;2022-07-29T15:14:33;27.30;99.90
4187;DHT22;2107;52.306;10.484;2022-07-29T15:17:02;27.20;99.90
4187;DHT22;2107;52.306;10.484;2022-07-29T15:19:29;27.10;99.90
4187;DHT22;2107;52.306;10.484;2022-07-29T15:21:56;27.00;99.90
4187;DHT22;2107;52.306;10.484;2022-07-29T15:24:23;26.90;99.90
4187;DHT22;2107;52.306;10.484;2022-07-29T15:26:50;26.60;99.90
4187;DHT22;2107;52.306;10.484;2022-07-29T15:29:17;26.50;99.90
4187;DHT22;2107;52.306;10.484;2022-07-29T15:31:43;26.50;99.90
4187;DHT22;2107;52.306;10.484;2022-07-29T15:34:12;26.50;99.90
4187;DHT22;2107;52.306;10.484;2022-07-29T15:36:39;26.50;99.90
4187;DHT22;2107;52.306;10.484;2022-07-29T15:39:06;26.50;99.90
4187;DHT22;2107;52.306;10.484;2022-07-29T15:41:34;26.40;99.90
4187;DHT22;2107;52.306;10.484;2022-07-29T15:44:01;26.30;99.90
4187;DHT22;2107;52.306;10.484;2022-07-29T15:46:28;26.30;99.90
4187;DHT22;2107;52.306;10.484;2022-07-29T15:49:14;26.20;99.90
4187;DHT22;2107;52.306;10.484;2022-07-29T15:51:41;26.20;99.90
4187;DHT22;2107;52.306;10.484;2022-07-29T15:54:07;26.20;99.90
4187;DHT22;2107;52.306;10.484;2022-07-29T15:56:34;26.10;99.90
4187;DHT22;2107;52.306;10.484;2022-07-29T15:59:01;26.20;99.90